createdAt,value
2018-02-04T00:01:07.173Z,-0.40
2018-02-04T00:03:35.641Z,-0.40
2018-02-04T00:06:03.069Z,-0.40
2018-02-04T00:08:30.510Z,-0.30
2018-02-04T00:10:57.950Z,-0.40
2018-02-04T00:13:25.387Z,-0.50
2018-02-04T00:15:52.813Z,-0.40
2018-02-04T00:18:20.308Z,-0.40
2018-02-04T00:20:47.689Z,-0.50
2018-02-04T00:23:15.149Z,-0.50
2018-02-04T00:25:42.755Z,-0.50
2018-02-04T00:28:10.181Z,-0.50
2018-02-04T00:30:37.624Z,-0.60
2018-02-04T00:33:05.072Z,-0.60
2018-02-04T00:35:32.507Z,-0.60
2018-02-04T00:37:59.962Z,-0.50
2018-02-04T00:40:27.406Z,-0.50
2018-02-04T00:42:54.851Z,-0.50
2018-02-04T00:45:23.135Z,-0.40
2018-02-04T00:47:51.333Z,-0.50
2018-02-04T00:50:18.775Z,-0.40
2018-02-04T00:52:46.226Z,-0.40
2018-02-04T00:55:13.679Z,-0.30
2018-02-04T00:57:41.128Z,-0.40
2018-02-04T01:00:09.333Z,-0.50
2018-02-04T01:02:36.787Z,-0.50
2018-02-04T01:05:04.226Z,-0.60
2018-02-04T01:07:31.662Z,-0.60
2018-02-04T01:09:59.866Z,-0.50
2018-02-04T01:12:27.326Z,-0.50
2018-02-04T01:14:54.770Z,-0.40
2018-02-04T01:17:22.217Z,-0.50
2018-02-04T01:19:49.650Z,-0.50
2018-02-04T01:22:17.860Z,-0.40
2018-02-04T01:24:45.297Z,-0.50
2018-02-04T01:27:13.516Z,-0.30
2018-02-04T01:29:40.954Z,-0.30
2018-02-04T01:32:08.389Z,-0.30
2018-02-04T01:34:35.822Z,-0.20
2018-02-04T01:37:03.262Z,-0.20
2018-02-04T01:39:30.693Z,-0.20
2018-02-04T01:41:58.150Z,-0.30
2018-02-04T01:44:26.624Z,-0.50
2018-02-04T01:46:54.114Z,-0.40
2018-02-04T01:49:21.556Z,-0.50
2018-02-04T01:51:49.006Z,-0.50
2018-02-04T01:54:16.463Z,-0.60
2018-02-04T01:56:43.905Z,-0.50
2018-02-04T01:59:11.414Z,-0.50
2018-02-04T02:01:38.859Z,-0.50
2018-02-04T02:04:06.294Z,-0.60
2018-02-04T02:06:33.739Z,-0.50
2018-02-04T02:09:01.195Z,-0.60
2018-02-04T02:11:28.692Z,-0.70
2018-02-04T02:13:56.131Z,-0.60
2018-02-04T02:16:23.616Z,-0.60
2018-02-04T02:18:51.050Z,-0.60
2018-02-04T02:21:18.481Z,-0.50
2018-02-04T02:23:45.946Z,-0.60
2018-02-04T02:26:13.405Z,-0.70
2018-02-04T02:28:40.846Z,-0.60
2018-02-04T02:31:08.277Z,-0.50
2018-02-04T02:33:35.755Z,-0.40
2018-02-04T02:36:03.181Z,-0.50
2018-02-04T02:38:31.393Z,-0.60
2018-02-04T02:40:58.862Z,-0.60
2018-02-04T02:43:26.319Z,-0.60
2018-02-04T02:45:53.759Z,-0.60
2018-02-04T02:48:21.204Z,-0.60
2018-02-04T02:50:48.645Z,-0.60
2018-02-04T02:53:16.120Z,-0.70
2018-02-04T02:55:43.530Z,-0.50
2018-02-04T02:58:10.974Z,-0.50
2018-02-04T03:00:38.416Z,-0.60
2018-02-04T03:03:05.866Z,-0.60
2018-02-04T03:05:33.314Z,-0.50
2018-02-04T03:08:00.762Z,-0.50
2018-02-04T03:10:28.194Z,-0.50
2018-02-04T03:12:55.652Z,-0.70
2018-02-04T03:15:23.855Z,-0.60
2018-02-04T03:17:51.298Z,-0.60
2018-02-04T03:20:18.743Z,-0.50
2018-02-04T03:22:46.192Z,-0.40
2018-02-04T03:25:14.410Z,-0.30
2018-02-04T03:27:41.859Z,-0.30
2018-02-04T03:30:09.295Z,-0.30
2018-02-04T03:32:36.738Z,-0.30
2018-02-04T03:35:04.170Z,-0.40
2018-02-04T03:37:31.612Z,-0.40
2018-02-04T03:39:59.059Z,-0.40
2018-02-04T03:42:26.490Z,-0.40
2018-02-04T03:44:53.940Z,-0.30
2018-02-04T03:47:21.371Z,-0.40
2018-02-04T03:49:49.594Z,-0.50
2018-02-04T03:52:17.041Z,-0.60
2018-02-04T03:54:44.473Z,-0.60
2018-02-04T03:57:11.918Z,-0.60
2018-02-04T03:59:39.362Z,-0.50
2018-02-04T04:02:07.569Z,-0.40
2018-02-04T04:04:35.010Z,-0.40
2018-02-04T04:07:02.446Z,-0.40
2018-02-04T04:09:30.650Z,-0.40
2018-02-04T04:11:58.145Z,-0.40
2018-02-04T04:14:25.698Z,-0.40
2018-02-04T04:16:53.130Z,-0.50
2018-02-04T04:19:20.574Z,-0.50
2018-02-04T04:21:48.010Z,-0.40
2018-02-04T04:24:16.761Z,-0.40
2018-02-04T04:26:44.287Z,-0.50
2018-02-04T04:29:11.738Z,-0.50
2018-02-04T04:31:39.201Z,-0.50
2018-02-04T04:34:06.670Z,-0.40
2018-02-04T04:36:34.106Z,-0.50
2018-02-04T04:39:01.600Z,-0.50
2018-02-04T04:41:29.032Z,-0.50
2018-02-04T04:43:56.474Z,-0.50
2018-02-04T04:46:23.908Z,-0.50
2018-02-04T04:48:52.118Z,-0.50
2018-02-04T04:51:19.585Z,-0.50
2018-02-04T04:53:47.026Z,-0.50
2018-02-04T04:56:14.487Z,-0.50
2018-02-04T04:58:41.934Z,-0.50
2018-02-04T05:01:09.374Z,-0.40
2018-02-04T05:03:37.598Z,-0.40
2018-02-04T05:06:05.035Z,-0.40
2018-02-04T05:08:32.478Z,-0.50
2018-02-04T05:10:59.926Z,-0.50
2018-02-04T05:13:27.374Z,-0.30
2018-02-04T05:15:55.597Z,-0.40
2018-02-04T05:18:23.033Z,-0.40
2018-02-04T05:20:50.470Z,-0.50
2018-02-04T05:23:17.918Z,-0.40
2018-02-04T05:25:46.125Z,-0.30
2018-02-04T05:28:13.566Z,-0.30
2018-02-04T05:30:41.758Z,-0.40
2018-02-04T05:33:09.221Z,-0.40
2018-02-04T05:35:36.682Z,-0.40
2018-02-04T05:38:04.219Z,-0.50
2018-02-04T05:40:31.700Z,-0.40
2018-02-04T05:42:59.151Z,-0.40
2018-02-04T05:45:26.581Z,-0.50
2018-02-04T05:47:54.066Z,-0.60
2018-02-04T05:50:21.508Z,-0.50
2018-02-04T05:52:48.950Z,-0.40
2018-02-04T05:55:16.395Z,-0.40
2018-02-04T05:57:43.845Z,-0.30
2018-02-04T06:00:12.046Z,-0.30
2018-02-04T06:02:39.494Z,-0.30
2018-02-04T06:05:06.928Z,-0.20
2018-02-04T06:07:35.134Z,-0.30
2018-02-04T06:10:02.594Z,-0.30
2018-02-04T06:12:30.011Z,-0.30
2018-02-04T06:14:58.224Z,-0.40
2018-02-04T06:17:25.671Z,-0.40
2018-02-04T06:19:53.109Z,-0.50
2018-02-04T06:22:21.378Z,-0.60
2018-02-04T06:24:49.590Z,-0.60
2018-02-04T06:27:17.043Z,-0.60
2018-02-04T06:29:44.492Z,-0.60
2018-02-04T06:32:11.917Z,-0.60
2018-02-04T06:34:40.150Z,-0.60
2018-02-04T06:37:07.598Z,-0.60
2018-02-04T06:39:35.058Z,-0.60
2018-02-04T06:42:02.525Z,-0.50
2018-02-04T06:44:29.969Z,-0.50
2018-02-04T06:46:57.513Z,-0.60
2018-02-04T06:49:24.971Z,-0.50
2018-02-04T06:51:52.420Z,-0.50
2018-02-04T06:54:19.853Z,-0.60
2018-02-04T06:56:48.078Z,-0.50
2018-02-04T06:59:15.523Z,-0.50
2018-02-04T07:01:42.962Z,-0.60
2018-02-04T07:04:10.403Z,-0.60
2018-02-04T07:06:38.608Z,-0.60
2018-02-04T07:09:06.056Z,-0.60
2018-02-04T07:11:33.497Z,-0.50
2018-02-04T07:14:00.959Z,-0.60
2018-02-04T07:16:28.395Z,-0.60
2018-02-04T07:18:56.649Z,-0.80
2018-02-04T07:21:24.086Z,-0.80
2018-02-04T07:23:51.640Z,-0.90
2018-02-04T07:26:19.083Z,-1.00
2018-02-04T07:28:46.529Z,-1.10
2018-02-04T07:31:13.966Z,-1.00
2018-02-04T07:33:41.406Z,-1.00
2018-02-04T07:36:09.617Z,-0.80
2018-02-04T07:38:37.097Z,-0.80
2018-02-04T07:41:04.541Z,-0.70
2018-02-04T07:43:31.995Z,-0.80
2018-02-04T07:45:59.439Z,-0.90
2018-02-04T07:48:26.895Z,-0.90
2018-02-04T07:50:54.331Z,-0.80
2018-02-04T07:53:22.538Z,-0.90
2018-02-04T07:55:49.972Z,-0.90
2018-02-04T07:58:17.427Z,-0.90
2018-02-04T08:00:45.639Z,-0.80
2018-02-04T08:03:13.074Z,-0.90
2018-02-04T08:05:40.513Z,-0.60
2018-02-04T08:08:08.345Z,-0.70
2018-02-04T08:10:35.792Z,-0.60
2018-02-04T08:13:03.228Z,-0.60
2018-02-04T08:15:30.671Z,-0.60
2018-02-04T08:17:58.138Z,-0.70
2018-02-04T08:20:25.586Z,-0.50
2018-02-04T08:22:53.022Z,-0.50
2018-02-04T08:25:20.494Z,-0.60
2018-02-04T08:27:47.975Z,-0.60
2018-02-04T08:30:15.423Z,-0.70
2018-02-04T08:32:42.878Z,-0.40
2018-02-04T08:35:10.346Z,-0.50
2018-02-04T08:37:37.787Z,-0.50
2018-02-04T08:40:05.235Z,-0.30
2018-02-04T08:42:32.684Z,-0.10
2018-02-04T08:45:00.131Z,-0.10
2018-02-04T08:47:27.558Z,0.00
2018-02-04T08:49:54.999Z,-0.30
2018-02-04T08:52:22.440Z,-0.40
2018-02-04T08:54:49.882Z,-0.40
2018-02-04T08:57:17.320Z,-0.30
2018-02-04T08:59:44.782Z,-0.40
2018-02-04T09:02:13.029Z,-0.50
2018-02-04T09:04:40.634Z,-0.50
2018-02-04T09:07:08.646Z,-0.50
2018-02-04T09:09:36.866Z,-0.40
2018-02-04T09:12:04.314Z,-0.40
2018-02-04T09:14:31.757Z,-0.10
2018-02-04T09:16:59.185Z,-0.20
2018-02-04T09:19:26.617Z,0.30
2018-02-04T09:21:54.054Z,0.20
2018-02-04T09:24:21.495Z,0.30
2018-02-04T09:26:48.918Z,0.30
2018-02-04T09:29:17.126Z,0.50
2018-02-04T09:31:44.554Z,0.50
2018-02-04T09:34:12.762Z,0.10
2018-02-04T09:36:40.192Z,0.10
2018-02-04T09:39:08.398Z,0.20
2018-02-04T09:41:35.837Z,0.10
2018-02-04T09:44:03.273Z,0.30
2018-02-04T09:46:31.470Z,0.50
2018-02-04T09:48:58.915Z,0.50
2018-02-04T09:51:27.116Z,0.30
2018-02-04T09:53:54.550Z,0.30
2018-02-04T09:56:21.986Z,0.30
2018-02-04T09:58:50.194Z,0.10
2018-02-04T10:01:17.633Z,0.00
2018-02-04T10:03:45.058Z,0.10
2018-02-04T10:06:12.502Z,0.10
2018-02-04T10:08:39.935Z,0.00
2018-02-04T10:11:07.374Z,0.10
2018-02-04T10:13:34.801Z,0.00
2018-02-04T10:16:03.010Z,0.30
2018-02-04T10:18:31.248Z,0.30
2018-02-04T10:20:59.449Z,0.70
2018-02-04T10:23:26.915Z,0.60
2018-02-04T10:25:55.082Z,0.70
2018-02-04T10:28:22.522Z,0.70
2018-02-04T10:30:49.958Z,1.10
2018-02-04T10:33:18.165Z,1.90
2018-02-04T10:35:45.607Z,1.90
2018-02-04T10:38:13.803Z,2.20
2018-02-04T10:40:41.240Z,2.20
2018-02-04T10:43:08.674Z,2.50
2018-02-04T10:45:36.881Z,2.20
2018-02-04T10:48:04.320Z,2.10
2018-02-04T10:50:32.529Z,2.30
2018-02-04T10:52:59.955Z,2.20
2018-02-04T10:55:27.402Z,2.30
2018-02-04T10:57:55.598Z,2.10
2018-02-04T11:00:23.031Z,2.10
2018-02-04T11:02:51.235Z,1.90
2018-02-04T11:05:18.678Z,1.90
2018-02-04T11:07:46.109Z,1.80
2018-02-04T11:10:14.322Z,1.60
2018-02-04T11:12:41.755Z,1.50
2018-02-04T11:15:09.967Z,1.70
2018-02-04T11:17:37.408Z,1.70
2018-02-04T11:20:04.849Z,1.50
2018-02-04T11:22:32.284Z,1.70
2018-02-04T11:25:00.497Z,2.00
2018-02-04T11:27:27.953Z,2.00
2018-02-04T11:29:55.383Z,1.80
2018-02-04T11:32:23.593Z,1.40
2018-02-04T11:34:51.034Z,1.40
2018-02-04T11:37:18.470Z,1.20
2018-02-04T11:39:46.678Z,1.10
2018-02-04T11:42:14.109Z,1.10
2018-02-04T11:44:41.545Z,1.20
2018-02-04T11:47:09.750Z,1.10
2018-02-04T11:49:37.190Z,1.10
2018-02-04T11:52:05.386Z,0.70
2018-02-04T11:54:32.878Z,0.70
2018-02-04T11:57:00.305Z,0.60
2018-02-04T11:59:27.804Z,0.50
2018-02-04T12:01:55.187Z,0.50
2018-02-04T12:04:23.382Z,0.50
2018-02-04T12:06:50.826Z,0.50
2018-02-04T12:09:18.267Z,0.60
2018-02-04T12:11:46.475Z,0.50
2018-02-04T12:14:14.073Z,0.50
2018-02-04T12:16:42.345Z,0.80
2018-02-04T12:19:09.763Z,0.80
2018-02-04T12:21:37.194Z,0.70
2018-02-04T12:24:05.413Z,1.00
2018-02-04T12:26:32.831Z,1.00
2018-02-04T12:29:01.026Z,1.20
2018-02-04T12:31:28.466Z,1.20
2018-02-04T12:33:55.907Z,1.20
2018-02-04T12:36:24.110Z,1.20
2018-02-04T12:38:52.376Z,1.20
2018-02-04T12:41:20.553Z,1.20
2018-02-04T12:43:47.991Z,1.20
2018-02-04T12:46:16.202Z,1.30
2018-02-04T12:48:43.633Z,1.30
2018-02-04T12:51:11.078Z,1.10
2018-02-04T12:53:39.283Z,1.00
2018-02-04T12:56:06.753Z,1.00
2018-02-04T12:58:34.165Z,1.20
2018-02-04T13:01:02.365Z,1.30
2018-02-04T13:03:29.795Z,1.30
2018-02-04T13:05:58.003Z,1.30
2018-02-04T13:08:25.439Z,1.30
2018-02-04T13:10:52.880Z,1.40
2018-02-04T13:13:21.083Z,1.80
2018-02-04T13:15:48.523Z,1.80
2018-02-04T13:18:15.956Z,1.70
2018-02-04T13:20:44.162Z,1.80
2018-02-04T13:23:11.601Z,1.80
2018-02-04T13:25:39.805Z,2.20
2018-02-04T13:28:07.230Z,2.20
2018-02-04T13:30:35.434Z,2.30
2018-02-04T13:33:02.881Z,2.30
2018-02-04T13:35:30.318Z,2.50
2018-02-04T13:37:58.529Z,2.20
2018-02-04T13:40:25.972Z,2.20
2018-02-04T13:42:53.404Z,1.70
2018-02-04T13:45:21.602Z,1.30
2018-02-04T13:47:49.039Z,1.30
2018-02-04T13:50:16.478Z,1.30
2018-02-04T13:52:44.680Z,1.40
2018-02-04T13:55:12.113Z,1.40
2018-02-04T13:57:40.328Z,1.60
2018-02-04T14:00:07.755Z,1.60
2018-02-04T14:02:35.962Z,1.60
2018-02-04T14:05:03.393Z,1.60
2018-02-04T14:07:30.835Z,1.80
2018-02-04T14:09:59.037Z,1.40
2018-02-04T14:12:26.477Z,1.40
2018-02-04T14:14:53.901Z,1.40
2018-02-04T14:17:21.338Z,1.50
2018-02-04T14:19:48.770Z,1.40
2018-02-04T14:22:16.214Z,1.50
2018-02-04T14:24:43.654Z,1.40
2018-02-04T14:27:11.858Z,1.40
2018-02-04T14:29:39.330Z,1.40
2018-02-04T14:32:06.774Z,1.30
2018-02-04T14:34:34.247Z,1.30
2018-02-04T14:37:01.682Z,1.30
2018-02-04T14:39:29.120Z,1.00
2018-02-04T14:41:56.562Z,1.10
2018-02-04T14:44:24.762Z,1.10
2018-02-04T14:46:52.206Z,1.10
2018-02-04T14:49:19.630Z,1.00
2018-02-04T14:51:47.062Z,0.90
2018-02-04T14:54:14.507Z,1.00
2018-02-04T14:56:41.942Z,1.00
2018-02-04T14:59:09.370Z,0.90
2018-02-04T15:01:37.591Z,1.00
2018-02-04T15:04:05.036Z,1.00
2018-02-04T15:06:32.489Z,1.00
2018-02-04T15:08:59.920Z,0.90
2018-02-04T15:11:28.144Z,1.10
2018-02-04T15:13:55.602Z,1.20
2018-02-04T15:16:23.052Z,1.10
2018-02-04T15:18:50.487Z,1.00
2018-02-04T15:21:18.594Z,1.00
2018-02-04T15:23:46.041Z,1.00
2018-02-04T15:26:13.495Z,1.00
2018-02-04T15:28:40.931Z,1.00
2018-02-04T15:31:08.382Z,1.00
2018-02-04T15:33:35.807Z,1.00
2018-02-04T15:36:04.051Z,1.00
2018-02-04T15:38:31.449Z,1.00
2018-02-04T15:40:59.657Z,0.90
2018-02-04T15:43:27.096Z,0.90
2018-02-04T15:45:54.605Z,1.00
2018-02-04T15:48:22.023Z,1.00
2018-02-04T15:50:49.464Z,1.10
2018-02-04T15:53:16.897Z,1.20
2018-02-04T15:55:45.093Z,1.10
2018-02-04T15:58:12.529Z,1.10
2018-02-04T16:00:40.730Z,1.00
2018-02-04T16:03:08.220Z,1.00
2018-02-04T16:05:35.655Z,1.00
2018-02-04T16:08:03.094Z,1.10
2018-02-04T16:10:30.578Z,1.20
2018-02-04T16:12:58.028Z,1.10
2018-02-04T16:15:25.453Z,1.10
2018-02-04T16:17:53.666Z,1.10
2018-02-04T16:20:21.106Z,1.00
2018-02-04T16:22:48.544Z,0.90
2018-02-04T16:25:15.985Z,0.90
2018-02-04T16:27:44.193Z,0.90
2018-02-04T16:30:11.618Z,0.90
2018-02-04T16:32:39.824Z,0.80
2018-02-04T16:35:07.256Z,0.80
2018-02-04T16:37:35.455Z,0.80
2018-02-04T16:40:02.892Z,0.80
2018-02-04T16:42:31.086Z,0.60
2018-02-04T16:44:58.519Z,0.60
2018-02-04T16:47:25.962Z,0.70
2018-02-04T16:49:54.161Z,0.70
2018-02-04T16:52:21.602Z,0.70
2018-02-04T16:54:49.800Z,0.60
2018-02-04T16:57:17.238Z,0.60
2018-02-04T16:59:44.763Z,0.60
2018-02-04T17:02:12.206Z,0.70
2018-02-04T17:04:39.731Z,0.80
2018-02-04T17:07:07.168Z,0.70
2018-02-04T17:09:34.597Z,0.70
2018-02-04T17:12:02.041Z,0.70
2018-02-04T17:14:29.468Z,0.70
2018-02-04T17:16:56.914Z,0.80
2018-02-04T17:19:24.339Z,0.70
2018-02-04T17:21:52.545Z,0.80
2018-02-04T17:24:19.976Z,0.80
2018-02-04T17:26:47.410Z,0.60
2018-02-04T17:29:15.607Z,0.60
2018-02-04T17:31:43.103Z,0.60
2018-02-04T17:34:10.542Z,0.70
2018-02-04T17:36:38.018Z,0.70
2018-02-04T17:39:05.451Z,0.60
2018-02-04T17:41:32.891Z,0.70
2018-02-04T17:44:00.326Z,0.70
2018-02-04T17:46:28.545Z,0.70
2018-02-04T17:48:55.979Z,0.70
2018-02-04T17:51:23.437Z,0.70
2018-02-04T17:53:50.869Z,0.60
2018-02-04T17:56:18.303Z,0.70
2018-02-04T17:58:45.746Z,0.60
2018-02-04T18:01:13.179Z,0.60
2018-02-04T18:03:40.622Z,0.60
2018-02-04T18:06:08.079Z,0.60
2018-02-04T18:08:35.518Z,0.60
2018-02-04T18:11:03.726Z,0.50
2018-02-04T18:13:31.161Z,0.50
2018-02-04T18:15:58.594Z,0.50
2018-02-04T18:18:26.168Z,0.40
2018-02-04T18:20:53.657Z,0.40
2018-02-04T18:23:21.089Z,0.50
2018-02-04T18:25:48.518Z,0.50
2018-02-04T18:28:15.962Z,0.40
2018-02-04T18:30:43.389Z,0.50
2018-02-04T18:33:10.834Z,0.40
2018-02-04T18:35:38.282Z,0.70
2018-02-04T18:38:05.725Z,0.60
2018-02-04T18:40:33.926Z,0.60
2018-02-04T18:43:01.370Z,0.60
2018-02-04T18:45:28.824Z,0.60
2018-02-04T18:47:56.269Z,0.60
2018-02-04T18:50:24.567Z,0.60
2018-02-04T18:52:51.985Z,0.60
2018-02-04T18:55:20.182Z,0.70
2018-02-04T18:57:47.653Z,0.70
2018-02-04T19:00:15.071Z,0.70
2018-02-04T19:02:43.287Z,0.90
2018-02-04T19:05:10.709Z,0.90
2018-02-04T19:07:38.914Z,0.80
2018-02-04T19:10:06.344Z,0.90
2018-02-04T19:12:34.569Z,0.70
2018-02-04T19:15:02.002Z,0.70
2018-02-04T19:17:29.446Z,0.70
2018-02-04T19:19:56.914Z,0.60
2018-02-04T19:22:24.329Z,0.70
2018-02-04T19:24:52.537Z,1.10
2018-02-04T19:27:20.019Z,1.10
2018-02-04T19:29:47.454Z,1.20
2018-02-04T19:32:14.893Z,1.10
2018-02-04T19:34:43.110Z,1.10
2018-02-04T19:37:10.548Z,1.10
2018-02-04T19:39:38.004Z,1.00
2018-02-04T19:42:05.461Z,1.00
2018-02-04T19:44:33.010Z,1.00
2018-02-04T19:47:00.446Z,1.00
2018-02-04T19:49:28.649Z,1.00
2018-02-04T19:51:56.089Z,1.00
2018-02-04T19:54:23.527Z,1.00
2018-02-04T19:56:51.758Z,1.00
2018-02-04T19:59:19.294Z,1.00
2018-02-04T20:01:46.770Z,1.00
2018-02-04T20:04:14.208Z,1.10
2018-02-04T20:06:41.686Z,1.20
2018-02-04T20:09:09.170Z,1.20
2018-02-04T20:11:36.600Z,1.00
2018-02-04T20:14:04.038Z,0.90
2018-02-04T20:16:31.510Z,0.90
2018-02-04T20:18:58.955Z,0.90
2018-02-04T20:21:27.142Z,0.80
2018-02-04T20:23:54.946Z,0.80
2018-02-04T20:26:23.144Z,0.70
2018-02-04T20:28:50.578Z,0.70
2018-02-04T20:31:18.778Z,0.90
2018-02-04T20:33:58.091Z,0.80
2018-02-04T20:36:26.323Z,0.90
2018-02-04T20:38:53.762Z,0.90
2018-02-04T20:41:21.230Z,0.90
2018-02-04T20:43:48.689Z,0.90
2018-02-04T20:46:16.235Z,0.90
2018-02-04T20:48:43.667Z,1.00
2018-02-04T20:51:11.878Z,1.00
2018-02-04T20:53:39.333Z,1.00
2018-02-04T20:56:06.766Z,1.00
2018-02-04T20:58:34.231Z,1.00
2018-02-04T21:01:01.642Z,1.10
2018-02-04T21:03:29.162Z,1.10
2018-02-04T21:05:56.590Z,1.10
2018-02-04T21:08:24.082Z,1.00
2018-02-04T21:10:51.866Z,1.10
2018-02-04T21:13:20.936Z,1.10
2018-02-04T21:15:48.362Z,1.10
2018-02-04T21:18:15.849Z,1.00
2018-02-04T21:20:43.311Z,1.00
2018-02-04T21:23:10.761Z,0.90
2018-02-04T21:25:38.251Z,0.80
2018-02-04T21:28:05.878Z,0.80
2018-02-04T21:30:33.338Z,0.80
2018-02-04T21:33:00.836Z,0.90
2018-02-04T21:35:28.263Z,0.90
2018-02-04T21:37:55.714Z,0.90
2018-02-04T21:40:23.143Z,0.90
2018-02-04T21:42:50.583Z,0.90
2018-02-04T21:45:18.074Z,1.00
2018-02-04T21:47:45.538Z,0.90
2018-02-04T21:50:12.974Z,0.90
2018-02-04T21:52:40.409Z,0.90
2018-02-04T21:55:07.930Z,0.90
2018-02-04T21:57:35.339Z,1.00
2018-02-04T22:00:02.782Z,1.10
2018-02-04T22:02:30.275Z,1.20
2018-02-04T22:04:57.719Z,1.20
2018-02-04T22:07:25.160Z,1.30
2018-02-04T22:09:52.603Z,1.30
2018-02-04T22:12:20.081Z,1.30
2018-02-04T22:14:47.650Z,1.10
2018-02-04T22:17:15.078Z,1.20
2018-02-04T22:19:42.518Z,1.20
2018-02-04T22:22:10.833Z,1.20
2018-02-04T22:24:38.291Z,1.20
2018-02-04T22:27:05.734Z,1.10
2018-02-04T22:29:33.166Z,1.10
2018-02-04T22:32:01.383Z,1.00
2018-02-04T22:34:28.860Z,1.00
2018-02-04T22:36:56.282Z,1.00
2018-02-04T22:39:23.721Z,1.00
2018-02-04T22:41:51.242Z,1.20
2018-02-04T22:44:18.778Z,1.60
2018-02-04T22:46:46.206Z,1.50
2018-02-04T22:49:13.689Z,1.40
2018-02-04T22:51:41.130Z,1.20
2018-02-04T22:54:08.591Z,1.20
2018-02-04T22:56:36.030Z,1.20
2018-02-04T22:59:03.475Z,1.10
2018-02-04T23:01:31.671Z,1.00
2018-02-04T23:03:59.110Z,1.00
2018-02-04T23:06:26.565Z,1.10
2018-02-04T23:08:54.010Z,1.10
2018-02-04T23:11:22.205Z,1.10
2018-02-04T23:13:49.646Z,1.10
2018-02-04T23:16:17.842Z,1.00
2018-02-04T23:18:45.283Z,1.00
2018-02-04T23:21:12.715Z,1.10
2018-02-04T23:23:40.153Z,1.10
2018-02-04T23:26:07.586Z,1.10
2018-02-04T23:28:35.027Z,1.10
2018-02-04T23:31:02.469Z,1.00
2018-02-04T23:33:29.893Z,1.10
2018-02-04T23:35:57.344Z,1.10
2018-02-04T23:38:24.770Z,1.10
2018-02-04T23:40:52.214Z,1.10
2018-02-04T23:43:19.638Z,1.10
2018-02-04T23:45:47.847Z,1.00
2018-02-04T23:48:15.282Z,1.00
2018-02-04T23:50:42.714Z,1.00
2018-02-04T23:53:10.923Z,1.00
2018-02-04T23:55:38.350Z,1.00
2018-02-04T23:58:06.547Z,0.90
